Time;durP1;ratioP1;P1;durP2;ratioP2;P2;SDS_P1;SDS_P2;PMS_P1;PMS_P2;Temp;Humidity;BMP_temperature;BMP_pressure;BME280_temperature;BME280_humidity;BME280_pressure;Samples;Min_cycle;Max_cycle;Signal;HPM_P1;HPM_P2
2022/10/10 00:00:40;;;;;;;3.35;2.00;;;9.80;99.90;;;;;;4975005;28;20027;-73
2022/10/10 00:03:06;;;;;;;3.25;2.05;;;9.70;99.90;;;;;;4985403;28;20030;-73
2022/10/10 00:05:32;;;;;;;3.25;2.35;;;9.70;99.90;;;;;;4974715;28;20019;-74
2022/10/10 00:07:57;;;;;;;2.67;2.00;;;9.60;99.90;;;;;;4985044;28;20037;-74
2022/10/10 00:10:23;;;;;;;6.00;2.60;;;9.50;99.90;;;;;;4974902;28;20035;-74
2022/10/10 00:12:49;;;;;;;4.10;2.08;;;9.50;99.90;;;;;;4984810;28;20038;-74
2022/10/10 00:15:15;;;;;;;3.13;2.05;;;9.50;99.90;;;;;;4974970;28;20093;-73
2022/10/10 00:17:42;;;;;;;3.67;2.35;;;9.30;99.90;;;;;;4972979;28;20444;-73
2022/10/10 00:20:13;;;;;;;3.45;2.10;;;9.30;99.90;;;;;;4985002;28;20477;-73
2022/10/10 00:22:39;;;;;;;2.38;2.15;;;9.40;99.90;;;;;;4973317;28;20035;-72
2022/10/10 00:25:07;;;;;;;7.53;2.60;;;9.20;99.90;;;;;;4971850;28;20436;-73
2022/10/10 00:27:33;;;;;;;4.10;2.58;;;9.30;99.90;;;;;;4973047;28;20034;-72
2022/10/10 00:29:58;;;;;;;3.65;2.40;;;9.10;99.90;;;;;;4973160;28;20106;-72
2022/10/10 00:32:24;;;;;;;5.93;2.40;;;9.10;99.90;;;;;;4973319;28;20052;-72
2022/10/10 00:34:50;;;;;;;4.90;2.20;;;8.90;99.90;;;;;;4973126;28;20034;-72
2022/10/10 00:37:16;;;;;;;5.28;2.30;;;9.10;99.90;;;;;;4985350;28;20042;-72
2022/10/10 00:39:41;;;;;;;3.95;2.20;;;9.00;99.90;;;;;;4973054;28;20161;-72
2022/10/10 00:42:11;;;;;;;5.53;2.35;;;9.00;99.90;;;;;;4985450;28;20097;-72
2022/10/10 00:44:38;;;;;;;4.75;2.35;;;9.00;99.90;;;;;;4973072;28;20019;-73
2022/10/10 00:47:03;;;;;;;4.55;2.30;;;9.10;99.90;;;;;;4971627;28;20063;-73
2022/10/10 00:49:30;;;;;;;4.43;2.63;;;9.10;99.90;;;;;;4979759;28;20400;-73
2022/10/10 00:51:58;;;;;;;4.05;2.60;;;9.10;99.90;;;;;;4992377;28;20026;-73
2022/10/10 00:54:26;;;;;;;3.03;2.47;;;9.20;99.90;;;;;;4985674;28;20054;-73
2022/10/10 00:57:00;;;;;;;4.65;2.58;;;9.20;99.90;;;;;;4986349;28;20030;-74
2022/10/10 00:59:29;;;;;;;4.28;2.55;;;9.20;99.90;;;;;;4984284;28;20027;-73
2022/10/10 01:01:54;;;;;;;3.45;2.40;;;9.20;99.90;;;;;;4987813;28;20066;-73
2022/10/10 01:04:29;;;;;;;4.97;2.90;;;9.30;99.90;;;;;;4984093;28;20022;-73
2022/10/10 01:06:55;;;;;;;5.15;2.53;;;9.30;99.90;;;;;;4985508;28;20106;-74
2022/10/10 01:09:21;;;;;;;3.28;2.22;;;9.20;99.90;;;;;;4982187;28;20030;-73
2022/10/10 01:11:54;;;;;;;3.15;2.30;;;9.10;99.90;;;;;;4989444;28;20030;-73
2022/10/10 01:14:28;;;;;;;5.82;3.05;;;9.10;99.90;;;;;;4982678;28;20050;-72
2022/10/10 01:16:59;;;;;;;3.65;2.47;;;9.20;99.90;;;;;;4973185;28;20031;-73
2022/10/10 01:19:31;;;;;;;4.22;2.85;;;9.20;99.90;;;;;;4984423;28;20050;-73
2022/10/10 01:22:13;;;;;;;5.72;3.13;;;9.20;99.90;;;;;;4982359;28;20029;-73
2022/10/10 01:24:53;;;;;;;5.20;2.80;;;9.20;99.90;;;;;;4990573;28;20096;-74
2022/10/10 01:27:30;;;;;;;4.85;2.47;;;9.20;99.90;;;;;;4971380;28;20099;-73
2022/10/10 01:30:02;;;;;;;4.85;2.42;;;9.30;99.90;;;;;;4972858;28;20031;-73
2022/10/10 01:32:52;;;;;;;5.00;2.78;;;9.20;99.90;;;;;;4972772;28;20022;-73
2022/10/10 01:35:21;;;;;;;3.97;2.63;;;9.20;99.90;;;;;;4971350;28;20027;-73
2022/10/10 01:38:07;;;;;;;4.10;2.55;;;9.20;99.90;;;;;;4970958;28;20038;-73
2022/10/10 01:40:51;;;;;;;5.18;2.90;;;9.20;99.90;;;;;;4971282;28;20096;-73
2022/10/10 01:43:17;;;;;;;3.25;2.60;;;9.20;99.90;;;;;;4980922;28;20424;-72
2022/10/10 01:45:52;;;;;;;3.58;2.78;;;9.30;99.90;;;;;;4991710;28;20030;-72
2022/10/10 01:48:30;;;;;;;4.57;3.03;;;9.30;99.90;;;;;;4991799;28;20033;-72
2022/10/10 01:51:47;;;;;;;5.68;2.90;;;9.30;99.90;;;;;;4993607;28;20045;-72
2022/10/10 01:54:37;;;;;;;5.75;2.90;;;9.30;99.90;;;;;;4994462;28;20039;-73
2022/10/10 01:57:33;;;;;;;6.38;2.80;;;9.30;99.90;;;;;;4987553;28;20027;-73
2022/10/10 02:00:13;;;;;;;4.90;2.97;;;9.30;99.90;;;;;;4982457;28;20023;-73
2022/10/10 02:02:48;;;;;;;5.97;3.28;;;9.30;99.90;;;;;;4976630;28;20047;-71
2022/10/10 02:05:34;;;;;;;4.35;3.10;;;9.20;99.90;;;;;;4978450;28;20034;-72
2022/10/10 02:08:06;;;;;;;3.53;2.95;;;9.10;99.90;;;;;;4983283;28;20109;-73
2022/10/10 02:10:35;;;;;;;5.28;3.10;;;9.10;99.90;;;;;;4974371;28;20085;-72
2022/10/10 02:13:03;;;;;;;5.50;2.63;;;9.10;99.90;;;;;;4974408;28;20077;-73
2022/10/10 02:15:37;;;;;;;4.72;2.80;;;9.00;99.90;;;;;;4975624;28;20027;-73
2022/10/10 02:18:05;;;;;;;4.53;2.88;;;9.00;99.90;;;;;;4975363;28;20027;-72
2022/10/10 02:20:31;;;;;;;6.05;3.60;;;8.90;99.90;;;;;;4982374;28;20027;-72
2022/10/10 02:22:57;;;;;;;9.65;4.72;;;8.80;99.90;;;;;;4995010;28;20019;-73
2022/10/10 02:25:29;;;;;;;9.65;6.40;;;8.90;99.90;;;;;;4985493;28;20046;-73
2022/10/10 02:28:12;;;;;;;6.72;4.63;;;8.90;99.90;;;;;;4988328;28;20492;-72
2022/10/10 02:30:41;;;;;;;5.88;4.13;;;8.70;99.90;;;;;;4975549;28;20035;-73
2022/10/10 02:33:07;;;;;;;8.85;7.05;;;8.60;99.90;;;;;;4981207;28;20488;-72
2022/10/10 02:35:37;;;;;;;9.70;5.95;;;8.70;99.90;;;;;;4994702;28;20085;-72
2022/10/10 02:38:05;;;;;;;7.53;5.40;;;8.80;99.90;;;;;;4981370;28;20031;-72
2022/10/10 02:40:33;;;;;;;8.20;6.25;;;8.70;99.90;;;;;;4982440;28;20031;-72
2022/10/10 02:43:01;;;;;;;8.13;5.80;;;8.80;99.90;;;;;;4975178;28;20031;-71
2022/10/10 02:45:28;;;;;;;8.02;5.80;;;8.70;99.90;;;;;;4975077;28;20097;-72
2022/10/10 02:47:54;;;;;;;6.43;4.70;;;8.70;99.90;;;;;;4974793;28;20061;-73
2022/10/10 02:50:21;;;;;;;6.68;3.45;;;8.70;99.90;;;;;;4988273;28;20050;-74
2022/10/10 02:52:47;;;;;;;7.47;3.63;;;8.60;99.90;;;;;;4993100;28;20084;-73
2022/10/10 02:55:12;;;;;;;6.03;3.53;;;8.50;99.90;;;;;;4992990;28;20038;-73
2022/10/10 02:57:38;;;;;;;4.93;3.05;;;8.30;99.90;;;;;;4979482;28;20034;-72
2022/10/10 03:00:05;;;;;;;6.55;3.20;;;8.30;99.90;;;;;;4974871;28;20437;-72
2022/10/10 03:02:30;;;;;;;5.18;3.33;;;8.30;99.90;;;;;;4987668;28;20026;-72
2022/10/10 03:04:57;;;;;;;4.18;3.25;;;8.20;99.90;;;;;;4974702;28;20396;-73
2022/10/10 03:07:23;;;;;;;3.85;3.13;;;8.30;99.90;;;;;;4974500;28;20026;-72
2022/10/10 03:09:48;;;;;;;5.90;4.07;;;8.20;99.90;;;;;;4974667;28;20031;-72
2022/10/10 03:12:14;;;;;;;6.22;3.58;;;8.20;99.90;;;;;;4974563;28;20037;-72
2022/10/10 03:14:40;;;;;;;3.50;3.03;;;8.20;99.90;;;;;;4973202;28;20027;-72
2022/10/10 03:17:05;;;;;;;5.47;4.05;;;8.20;99.90;;;;;;4972892;28;20027;-71
2022/10/10 03:19:31;;;;;;;6.05;3.20;;;8.20;99.90;;;;;;4974504;28;20099;-72
2022/10/10 03:21:56;;;;;;;7.80;3.40;;;8.30;99.90;;;;;;4974397;28;20374;-72
2022/10/10 03:24:22;;;;;;;7.03;3.70;;;8.20;99.90;;;;;;4974265;28;20023;-71
2022/10/10 03:26:47;;;;;;;4.88;3.45;;;8.10;99.90;;;;;;4974268;28;20054;-73
2022/10/10 03:29:13;;;;;;;5.75;3.85;;;8.20;99.90;;;;;;4986726;28;20026;-73
2022/10/10 03:31:39;;;;;;;4.90;4.13;;;8.20;99.90;;;;;;4980555;28;20023;-73
2022/10/10 03:34:04;;;;;;;7.35;3.72;;;8.30;99.90;;;;;;4981235;28;20058;-72
2022/10/10 03:36:30;;;;;;;5.85;2.85;;;8.30;99.90;;;;;;4979833;28;20030;-73
2022/10/10 03:38:55;;;;;;;4.82;3.10;;;8.40;99.90;;;;;;4981239;28;20023;-72
2022/10/10 03:41:21;;;;;;;5.20;3.08;;;8.50;99.90;;;;;;4986993;28;20030;-73
2022/10/10 03:43:46;;;;;;;5.20;3.38;;;8.60;99.90;;;;;;4974050;28;20031;-73
2022/10/10 03:46:12;;;;;;;6.15;3.25;;;8.70;99.90;;;;;;4972677;28;20119;-72
2022/10/10 03:48:38;;;;;;;5.57;3.60;;;8.80;99.90;;;;;;4985477;28;20031;-73
2022/10/10 03:51:03;;;;;;;5.85;3.75;;;8.90;99.90;;;;;;4986132;28;20073;-73
2022/10/10 03:53:29;;;;;;;4.13;3.30;;;9.00;99.90;;;;;;4986213;28;20054;-73
2022/10/10 03:55:54;;;;;;;6.55;3.28;;;9.00;99.90;;;;;;4980199;28;20034;-73
2022/10/10 03:58:20;;;;;;;5.35;3.40;;;9.10;99.90;;;;;;4980801;28;20074;-74
2022/10/10 04:00:55;;;;;;;5.65;3.47;;;9.20;99.90;;;;;;4986590;28;20062;-73
2022/10/10 04:03:22;;;;;;;16.67;12.57;;;9.10;99.90;;;;;;4987317;28;20026;-74
2022/10/10 04:05:47;;;;;;;11.23;10.15;;;8.80;99.90;;;;;;4986142;28;20027;-73
2022/10/10 04:08:13;;;;;;;8.77;5.45;;;8.80;99.90;;;;;;4973619;28;20038;-75
2022/10/10 04:10:38;;;;;;;7.72;4.15;;;8.90;99.90;;;;;;4979184;28;20030;-72
2022/10/10 04:13:04;;;;;;;4.35;3.22;;;9.10;99.90;;;;;;4979661;28;20030;-72
2022/10/10 04:15:31;;;;;;;5.00;3.22;;;9.20;99.90;;;;;;4985524;28;20030;-73
2022/10/10 04:17:57;;;;;;;7.30;3.15;;;9.30;99.90;;;;;;4973306;28;20493;-73
2022/10/10 04:20:23;;;;;;;6.15;4.05;;;9.40;99.90;;;;;;4986019;28;20058;-73
2022/10/10 04:22:49;;;;;;;8.95;3.42;;;9.50;99.90;;;;;;4972165;28;20074;-73
2022/10/10 04:25:14;;;;;;;5.28;3.28;;;9.50;99.90;;;;;;4979887;28;20030;-73
2022/10/10 04:27:40;;;;;;;6.55;3.58;;;9.30;99.90;;;;;;4979572;28;20031;-73
2022/10/10 04:30:06;;;;;;;5.10;3.78;;;9.30;99.90;;;;;;4986227;28;20469;-72
2022/10/10 04:32:32;;;;;;;5.80;3.95;;;9.30;99.90;;;;;;4986188;28;20027;-72
2022/10/10 04:34:57;;;;;;;6.57;4.60;;;9.20;99.90;;;;;;4973138;28;20029;-71
2022/10/10 04:37:23;;;;;;;7.68;4.20;;;9.20;99.90;;;;;;4973003;28;20034;-73
2022/10/10 04:39:48;;;;;;;5.95;4.90;;;9.20;99.90;;;;;;4971856;28;20423;-72
2022/10/10 04:42:14;;;;;;;6.35;4.20;;;9.30;99.90;;;;;;4973063;28;20031;-72
2022/10/10 04:44:40;;;;;;;9.13;4.88;;;9.30;99.90;;;;;;4984259;28;20031;-74
2022/10/10 04:47:06;;;;;;;6.15;3.58;;;9.30;99.90;;;;;;4971623;28;20041;-73
2022/10/10 04:49:31;;;;;;;8.13;4.75;;;9.10;99.90;;;;;;4973797;28;20027;-74
2022/10/10 04:51:57;;;;;;;12.32;7.82;;;8.80;99.90;;;;;;4979087;28;20035;-73
2022/10/10 04:54:22;;;;;;;8.65;7.75;;;8.80;99.90;;;;;;4972884;28;20042;-73
2022/10/10 04:56:48;;;;;;;9.32;5.18;;;8.80;99.90;;;;;;4971587;28;20026;-73
2022/10/10 04:59:13;;;;;;;5.47;3.40;;;8.80;99.90;;;;;;4992442;28;20026;-73
2022/10/10 05:01:39;;;;;;;10.88;9.98;;;8.80;99.90;;;;;;4992417;28;20491;-72
2022/10/10 05:04:05;;;;;;;6.68;4.95;;;8.90;99.90;;;;;;4985598;28;20089;-73
2022/10/10 05:06:31;;;;;;;5.13;3.92;;;8.80;99.90;;;;;;4972797;28;20093;-73
2022/10/10 05:08:56;;;;;;;6.85;4.35;;;8.90;99.90;;;;;;4977659;28;20067;-74
2022/10/10 05:11:22;;;;;;;6.30;3.97;;;8.70;99.90;;;;;;4978073;28;20027;-74
2022/10/10 05:13:49;;;;;;;5.15;3.80;;;8.70;99.90;;;;;;4972742;28;20027;-74
2022/10/10 05:16:15;;;;;;;5.68;4.40;;;8.70;99.90;;;;;;4972644;28;20027;-74
2022/10/10 05:18:41;;;;;;;8.30;7.32;;;8.70;99.90;;;;;;4979118;28;20023;-74
2022/10/10 05:21:07;;;;;;;7.15;3.55;;;8.60;99.90;;;;;;4979029;28;20029;-74
2022/10/10 05:23:33;;;;;;;7.43;4.30;;;8.50;99.90;;;;;;4979027;28;20026;-74
2022/10/10 05:25:58;;;;;;;8.73;3.95;;;8.60;99.90;;;;;;4994368;28;20060;-74
2022/10/10 05:28:24;;;;;;;6.20;4.10;;;8.70;99.90;;;;;;4995832;28;20714;-74
2022/10/10 05:30:51;;;;;;;7.28;6.13;;;8.70;99.90;;;;;;4994642;28;20522;-73
2022/10/10 05:33:16;;;;;;;10.18;7.85;;;8.80;99.90;;;;;;4994518;28;20038;-73
2022/10/10 05:35:42;;;;;;;10.55;6.80;;;8.80;99.90;;;;;;4995725;28;20391;-73
2022/10/10 05:38:08;;;;;;;12.23;4.20;;;8.90;99.90;;;;;;4989548;28;20448;-74
2022/10/10 05:40:33;;;;;;;7.68;4.45;;;8.90;99.90;;;;;;4976244;28;20489;-74
2022/10/10 05:42:59;;;;;;;13.45;7.20;;;9.00;99.90;;;;;;4976248;28;20076;-72
2022/10/10 05:45:25;;;;;;;5.68;4.25;;;9.00;99.90;;;;;;4976203;28;20456;-73
2022/10/10 05:47:50;;;;;;;7.63;4.28;;;8.70;99.90;;;;;;4989017;28;20031;-74
2022/10/10 05:50:32;;;;;;;6.72;3.70;;;8.40;99.90;;;;;;4987565;28;20444;-73
2022/10/10 05:52:58;;;;;;;4.90;3.85;;;8.50;99.90;;;;;;4995246;28;20018;-73
2022/10/10 05:55:24;;;;;;;6.32;4.03;;;8.70;99.90;;;;;;4995333;28;20046;-72
2022/10/10 05:57:50;;;;;;;7.50;4.20;;;8.80;99.90;;;;;;4977454;28;20031;-72
2022/10/10 06:00:16;;;;;;;8.93;4.55;;;8.80;99.90;;;;;;4992024;28;20146;-73
2022/10/10 06:02:41;;;;;;;5.90;4.07;;;8.80;99.90;;;;;;4994518;28;20485;-73
2022/10/10 06:05:07;;;;;;;6.63;4.35;;;8.80;99.90;;;;;;4992434;28;20034;-73
2022/10/10 06:07:33;;;;;;;7.88;4.47;;;8.90;99.90;;;;;;4975456;28;20058;-73
2022/10/10 06:09:58;;;;;;;6.47;5.50;;;8.90;99.90;;;;;;4975599;28;20463;-73
2022/10/10 06:12:24;;;;;;;7.78;4.13;;;9.00;99.90;;;;;;4975823;28;20023;-72
2022/10/10 06:14:49;;;;;;;12.57;5.10;;;9.00;99.90;;;;;;4975593;28;20039;-73
2022/10/10 06:17:15;;;;;;;7.32;4.60;;;9.00;99.90;;;;;;4982768;28;20034;-73
2022/10/10 06:19:40;;;;;;;7.18;5.13;;;9.10;99.90;;;;;;4990204;28;20026;-73
2022/10/10 06:22:06;;;;;;;9.00;6.38;;;9.20;99.90;;;;;;4975606;28;20109;-73
2022/10/10 06:24:31;;;;;;;10.05;7.10;;;9.30;99.90;;;;;;4975242;28;20122;-73
2022/10/10 06:26:57;;;;;;;9.52;7.15;;;9.60;99.90;;;;;;4975300;28;20085;-73
2022/10/10 06:29:23;;;;;;;8.90;5.82;;;9.50;99.90;;;;;;4990307;28;20033;-73
2022/10/10 06:31:48;;;;;;;8.07;5.22;;;9.40;99.90;;;;;;4983610;28;20098;-73
2022/10/10 06:34:14;;;;;;;8.70;5.25;;;9.50;99.90;;;;;;4986027;28;20031;-73
2022/10/10 06:36:39;;;;;;;11.45;8.15;;;9.60;99.90;;;;;;4987990;28;20048;-73
2022/10/10 06:39:05;;;;;;;13.02;9.10;;;9.60;99.90;;;;;;4981295;28;20031;-73
2022/10/10 06:41:30;;;;;;;9.57;6.72;;;9.80;99.90;;;;;;4987586;28;20027;-73
2022/10/10 06:43:56;;;;;;;23.60;16.40;;;9.90;99.90;;;;;;4988252;28;20026;-73
2022/10/10 06:46:21;;;;;;;12.32;8.30;;;10.00;99.90;;;;;;4981710;28;20329;-73
2022/10/10 06:48:47;;;;;;;10.18;7.53;;;10.10;99.90;;;;;;4994370;28;20030;-74
2022/10/10 06:51:15;;;;;;;7.50;4.68;;;10.20;99.90;;;;;;4994513;28;20031;-73
2022/10/10 06:53:41;;;;;;;6.60;4.00;;;10.20;99.90;;;;;;4987280;28;20058;-73
2022/10/10 06:56:09;;;;;;;9.65;5.28;;;10.20;99.90;;;;;;4986733;28;20093;-73
2022/10/10 06:58:35;;;;;;;7.07;5.32;;;10.20;99.90;;;;;;4986956;28;20026;-73
2022/10/10 07:01:03;;;;;;;5.75;4.88;;;10.40;99.90;;;;;;4978887;28;20158;-73
2022/10/10 07:03:29;;;;;;;6.80;4.10;;;10.50;99.90;;;;;;4974654;28;20081;-73
2022/10/10 07:05:58;;;;;;;4.20;3.75;;;10.60;99.90;;;;;;4978223;28;20109;-73
2022/10/10 07:08:24;;;;;;;5.82;4.22;;;10.70;99.90;;;;;;4983807;28;20038;-73
2022/10/10 07:10:50;;;;;;;21.17;12.80;;;10.80;99.90;;;;;;4973424;28;20030;-73
2022/10/10 07:13:16;;;;;;;64.40;34.55;;;10.90;99.90;;;;;;4979948;28;20037;-74
2022/10/10 07:15:42;;;;;;;21.83;13.27;;;10.90;99.90;;;;;;4993806;28;20030;-73
2022/10/10 07:18:08;;;;;;;28.10;16.63;;;11.00;99.90;;;;;;4977148;28;20022;-73
2022/10/10 07:20:35;;;;;;;19.90;12.50;;;11.00;99.90;;;;;;4973216;28;20074;-73
2022/10/10 07:23:01;;;;;;;10.85;6.68;;;11.10;99.90;;;;;;4978294;28;20014;-73
2022/10/10 07:25:27;;;;;;;6.38;3.85;;;11.10;99.90;;;;;;4991056;28;20069;-73
2022/10/10 07:27:53;;;;;;;47.55;27.95;;;11.20;99.90;;;;;;4978093;28;20069;-74
2022/10/10 07:30:18;;;;;;;23.55;13.07;;;11.20;99.90;;;;;;4974181;28;20085;-74
2022/10/10 07:32:44;;;;;;;21.02;12.45;;;11.20;99.90;;;;;;4974075;28;20548;-74
2022/10/10 07:35:11;;;;;;;6.75;4.93;;;11.20;99.90;;;;;;4974215;28;20339;-73
2022/10/10 07:37:37;;;;;;;8.60;4.70;;;11.20;99.90;;;;;;4973652;28;20358;-74
2022/10/10 07:40:03;;;;;;;6.03;5.22;;;11.30;99.90;;;;;;4978199;28;20034;-74
2022/10/10 07:42:28;;;;;;;4.65;3.53;;;11.30;99.90;;;;;;4982284;28;20105;-74
2022/10/10 07:44:54;;;;;;;4.60;3.40;;;11.20;99.90;;;;;;4974005;28;20102;-73
2022/10/10 07:47:20;;;;;;;5.13;3.50;;;11.20;99.90;;;;;;4973529;28;20034;-73
2022/10/10 07:49:46;;;;;;;6.47;3.65;;;11.20;99.90;;;;;;4982316;28;20145;-73
2022/10/10 07:52:11;;;;;;;7.38;3.50;;;11.10;99.90;;;;;;4978392;28;20484;-74
2022/10/10 07:54:37;;;;;;;6.50;3.35;;;11.20;99.90;;;;;;4973693;28;20588;-73
2022/10/10 07:57:02;;;;;;;5.05;3.42;;;11.30;99.90;;;;;;4980118;28;20526;-73
2022/10/10 07:59:28;;;;;;;4.88;3.97;;;11.40;99.90;;;;;;4973690;28;20417;-74
2022/10/10 08:01:54;;;;;;;4.88;3.70;;;11.40;99.90;;;;;;4973426;28;20023;-73
2022/10/10 08:04:20;;;;;;;7.63;3.95;;;11.50;99.90;;;;;;4973464;28;20042;-74
2022/10/10 08:06:45;;;;;;;20.70;7.20;;;11.50;99.90;;;;;;4973641;28;20035;-73
2022/10/10 08:09:11;;;;;;;8.23;4.10;;;11.60;99.90;;;;;;4973579;28;20030;-73
2022/10/10 08:11:36;;;;;;;6.10;3.70;;;11.70;99.90;;;;;;4973287;28;20031;-74
2022/10/10 08:14:03;;;;;;;8.00;3.80;;;11.70;99.90;;;;;;4973362;28;20489;-74
2022/10/10 08:16:28;;;;;;;7.57;4.40;;;11.70;99.90;;;;;;4971868;28;20033;-74
2022/10/10 08:18:54;;;;;;;6.88;4.05;;;11.60;99.90;;;;;;4971839;28;20027;-74
2022/10/10 08:21:19;;;;;;;6.53;4.03;;;11.70;99.90;;;;;;4973276;28;20147;-74
2022/10/10 08:23:45;;;;;;;7.97;4.35;;;11.70;99.90;;;;;;4971923;28;20037;-73
2022/10/10 08:26:13;;;;;;;7.50;4.57;;;11.80;99.90;;;;;;4974096;28;20069;-73
2022/10/10 08:28:39;;;;;;;7.35;4.20;;;11.90;99.90;;;;;;4984862;28;20027;-72
2022/10/10 08:31:13;;;;;;;8.88;4.30;;;11.90;99.90;;;;;;4973099;28;20080;-73
2022/10/10 08:33:41;;;;;;;6.15;4.45;;;12.00;99.90;;;;;;4972010;28;20493;-73
2022/10/10 08:36:16;;;;;;;12.35;6.47;;;12.00;99.90;;;;;;4973232;28;20030;-73
2022/10/10 08:38:42;;;;;;;8.43;5.47;;;12.10;99.90;;;;;;4983004;28;20378;-74
2022/10/10 08:41:27;;;;;;;11.73;5.55;;;12.20;99.90;;;;;;4974591;28;20058;-74
2022/10/10 08:43:59;;;;;;;12.65;5.47;;;12.30;99.90;;;;;;4972982;28;20106;-74
2022/10/10 08:46:36;;;;;;;9.57;4.80;;;12.30;99.90;;;;;;4973007;28;20027;-74
2022/10/10 08:49:14;;;;;;;8.90;4.50;;;12.40;99.90;;;;;;4975633;28;20018;-74
2022/10/10 08:51:45;;;;;;;8.45;4.60;;;12.40;99.90;;;;;;4992321;28;20027;-74
2022/10/10 08:54:13;;;;;;;7.97;4.75;;;12.50;99.90;;;;;;4992225;28;20022;-74
2022/10/10 08:56:40;;;;;;;7.60;5.30;;;12.60;99.90;;;;;;4985338;28;20538;-74
2022/10/10 08:59:15;;;;;;;5.53;4.47;;;12.60;99.90;;;;;;4972653;28;20039;-74
2022/10/10 09:01:41;;;;;;;11.73;4.50;;;12.70;99.90;;;;;;4972782;28;20027;-74
2022/10/10 09:04:14;;;;;;;5.85;4.72;;;12.80;99.90;;;;;;4972881;28;20548;-74
2022/10/10 09:06:51;;;;;;;9.18;4.78;;;12.80;99.90;;;;;;4972747;28;20031;-74
2022/10/10 09:09:35;;;;;;;9.35;5.22;;;12.90;99.90;;;;;;4973042;28;20030;-74
2022/10/10 09:12:20;;;;;;;7.93;4.60;;;13.00;99.90;;;;;;4973033;28;20026;-73
2022/10/10 09:15:11;;;;;;;10.52;4.53;;;13.20;99.90;;;;;;4972768;28;20101;-73
2022/10/10 09:17:55;;;;;;;6.85;4.47;;;13.10;99.90;;;;;;4972536;28;20030;-74
2022/10/10 09:20:31;;;;;;;6.55;4.50;;;13.20;99.90;;;;;;4979592;28;20053;-73
2022/10/10 09:23:03;;;;;;;6.10;4.30;;;13.20;99.90;;;;;;4992190;28;20034;-73
2022/10/10 09:25:33;;;;;;;10.43;5.90;;;13.40;99.90;;;;;;4991831;28;20034;-73
2022/10/10 09:28:23;;;;;;;7.13;4.68;;;13.30;99.90;;;;;;4975868;28;20026;-73
2022/10/10 09:30:53;;;;;;;7.28;5.13;;;13.40;99.90;;;;;;4972483;28;20053;-73
2022/10/10 09:33:35;;;;;;;8.85;6.25;;;13.40;99.90;;;;;;4972501;28;20089;-73
2022/10/10 09:36:05;;;;;;;7.80;4.70;;;13.40;99.90;;;;;;4972297;28;20034;-74
2022/10/10 09:38:38;;;;;;;9.10;5.97;;;13.40;99.90;;;;;;4972196;28;20023;-75
2022/10/10 09:41:20;;;;;;;8.35;6.57;;;13.50;99.90;;;;;;4972567;28;20078;-73
2022/10/10 09:43:47;;;;;;;10.77;5.80;;;13.60;99.90;;;;;;4984052;28;20376;-73
2022/10/10 09:46:13;;;;;;;10.55;5.35;;;13.70;99.90;;;;;;4984244;28;20054;-73
2022/10/10 09:48:40;;;;;;;14.63;10.05;;;13.80;99.90;;;;;;4995444;28;20117;-73
2022/10/10 09:51:12;;;;;;;6.88;5.70;;;13.80;99.90;;;;;;4972465;28;20059;-72
2022/10/10 09:53:38;;;;;;;10.85;6.13;;;14.00;99.90;;;;;;4981956;28;20041;-73
2022/10/10 09:56:04;;;;;;;12.70;5.97;;;14.10;99.90;;;;;;4980595;28;20027;-73
2022/10/10 09:58:42;;;;;;;9.35;5.45;;;14.00;99.90;;;;;;4978176;28;20401;-72
2022/10/10 10:01:19;;;;;;;14.25;8.32;;;14.10;99.90;;;;;;4988516;28;20058;-73
2022/10/10 10:04:12;;;;;;;12.95;7.18;;;14.20;99.90;;;;;;4990726;28;20026;-73
2022/10/10 10:06:42;;;;;;;11.30;6.43;;;14.30;99.90;;;;;;4985844;28;20050;-72
2022/10/10 10:09:14;;;;;;;10.93;6.00;;;14.40;99.90;;;;;;4986312;28;20035;-73
2022/10/10 10:11:40;;;;;;;9.27;6.10;;;14.50;99.90;;;;;;4989039;28;20109;-72
2022/10/10 10:14:13;;;;;;;12.38;7.40;;;14.50;99.90;;;;;;4989354;28;20137;-73
2022/10/10 10:16:39;;;;;;;12.35;5.55;;;14.50;99.90;;;;;;4982412;28;20034;-73
2022/10/10 10:19:25;;;;;;;10.88;6.05;;;14.50;99.90;;;;;;4984268;28;20163;-72
2022/10/10 10:21:51;;;;;;;9.02;5.78;;;14.50;99.90;;;;;;4975521;28;20026;-73
2022/10/10 10:24:28;;;;;;;11.63;6.50;;;14.50;99.90;;;;;;4974109;28;20079;-73
2022/10/10 10:26:54;;;;;;;9.05;5.88;;;14.80;99.90;;;;;;4982420;28;20033;-73
2022/10/10 10:29:31;;;;;;;8.23;5.45;;;14.90;99.90;;;;;;4979963;28;20126;-73
2022/10/10 10:31:59;;;;;;;9.20;5.53;;;15.30;99.90;;;;;;4974373;28;20031;-72
2022/10/10 10:34:55;;;;;;;7.25;5.97;;;15.30;99.90;;;;;;4975303;28;20058;-73
2022/10/10 10:37:35;;;;;;;8.85;5.65;;;15.20;99.90;;;;;;4975215;28;20031;-73
2022/10/10 10:40:30;;;;;;;10.18;6.25;;;15.30;99.90;;;;;;4985906;28;20105;-73
2022/10/10 10:43:22;;;;;;;9.98;5.60;;;15.00;99.90;;;;;;4980067;28;20038;-73
2022/10/10 10:46:11;;;;;;;7.07;5.90;;;15.10;99.90;;;;;;4984052;28;20093;-73
2022/10/10 10:48:46;;;;;;;9.30;6.00;;;14.90;99.90;;;;;;4974901;28;20031;-73
2022/10/10 10:51:45;;;;;;;9.55;6.20;;;15.00;99.90;;;;;;4982101;28;20042;-73
2022/10/10 10:54:27;;;;;;;8.52;5.53;;;15.10;99.90;;;;;;4994612;28;20026;-73
2022/10/10 10:56:55;;;;;;;7.90;5.47;;;15.30;99.90;;;;;;4986002;28;20121;-73
2022/10/10 10:59:45;;;;;;;8.52;5.50;;;15.50;99.90;;;;;;4986803;28;20058;-73
2022/10/10 11:02:14;;;;;;;7.57;5.10;;;15.70;99.90;;;;;;4986449;28;20488;-73
2022/10/10 11:05:01;;;;;;;9.65;6.03;;;15.70;99.90;;;;;;4992203;28;20109;-73
2022/10/10 11:07:33;;;;;;;7.22;5.57;;;15.60;99.90;;;;;;4974639;28;20483;-73
2022/10/10 11:10:16;;;;;;;9.25;4.80;;;15.90;99.90;;;;;;4974477;28;20098;-73
2022/10/10 11:13:03;;;;;;;6.65;4.93;;;16.30;99.90;;;;;;4974643;28;20023;-73
2022/10/10 11:15:56;;;;;;;5.65;4.60;;;16.40;99.90;;;;;;4977004;28;20481;-74
2022/10/10 11:18:24;;;;;;;7.00;4.95;;;16.50;99.90;;;;;;4984089;28;20493;-73
2022/10/10 11:21:10;;;;;;;7.07;4.70;;;16.60;99.90;;;;;;4974571;28;20026;-73
2022/10/10 11:23:38;;;;;;;7.93;4.88;;;16.50;99.90;;;;;;4986466;28;20023;-73
2022/10/10 11:26:09;;;;;;;7.38;5.25;;;16.70;99.90;;;;;;4974331;28;20274;-73
2022/10/10 11:28:49;;;;;;;7.03;5.15;;;16.80;99.90;;;;;;4986008;28;20385;-73
2022/10/10 11:31:24;;;;;;;8.30;4.60;;;17.10;99.90;;;;;;4976417;28;20027;-74
2022/10/10 11:34:02;;;;;;;6.97;5.03;;;16.60;99.90;;;;;;4982655;28;20030;-73
2022/10/10 11:36:30;;;;;;;8.73;4.55;;;16.70;99.90;;;;;;4987312;28;20031;-74
2022/10/10 11:39:11;;;;;;;6.32;4.50;;;16.90;99.90;;;;;;4986801;28;20019;-73
2022/10/10 11:41:57;;;;;;;7.38;4.35;;;16.90;99.90;;;;;;4981088;28;20387;-74
2022/10/10 11:44:31;;;;;;;8.43;4.65;;;17.20;99.90;;;;;;4980436;28;20018;-74
2022/10/10 11:47:26;;;;;;;11.80;4.57;;;17.00;99.90;;;;;;4981553;28;20073;-74
2022/10/10 11:50:13;;;;;;;9.85;4.80;;;18.10;99.90;;;;;;4974125;28;20035;-74
2022/10/10 11:53:02;;;;;;;8.52;5.00;;;18.40;99.90;;;;;;4987093;28;20019;-74
2022/10/10 11:55:32;;;;;;;6.38;4.57;;;19.10;99.90;;;;;;4986811;28;20057;-74
2022/10/10 11:58:03;;;;;;;8.02;4.65;;;19.30;99.90;;;;;;4983203;28;20030;-75
2022/10/10 12:00:32;;;;;;;6.07;4.07;;;19.40;99.90;;;;;;4980056;28;20022;-74
2022/10/10 12:02:58;;;;;;;5.03;3.65;;;19.10;99.90;;;;;;4982698;28;20031;-74
2022/10/10 12:05:27;;;;;;;8.73;4.30;;;19.00;99.90;;;;;;4986800;28;20034;-74
2022/10/10 12:08:29;;;;;;;7.05;4.53;;;18.80;99.90;;;;;;4984434;28;20037;-75
2022/10/10 12:11:02;;;;;;;4.70;3.67;;;19.50;99.90;;;;;;4982926;28;20069;-75
2022/10/10 12:13:41;;;;;;;9.43;4.13;;;18.80;99.90;;;;;;4980041;28;20026;-74
2022/10/10 12:16:18;;;;;;;8.75;4.75;;;18.40;99.90;;;;;;4980919;28;20030;-74
2022/10/10 12:18:49;;;;;;;10.98;5.28;;;18.20;99.90;;;;;;4980337;28;20480;-75
2022/10/10 12:21:21;;;;;;;5.82;3.95;;;18.80;99.90;;;;;;4977320;28;20041;-74
2022/10/10 12:23:58;;;;;;;6.45;4.35;;;18.10;99.90;;;;;;4982068;28;20026;-74
2022/10/10 12:26:25;;;;;;;9.63;4.82;;;17.90;99.90;;;;;;4979621;28;20117;-75
2022/10/10 12:28:59;;;;;;;10.48;5.57;;;17.70;99.90;;;;;;4981277;28;20029;-74
2022/10/10 12:31:35;;;;;;;7.93;4.38;;;17.70;99.90;;;;;;4986458;28;20114;-74
2022/10/10 12:34:13;;;;;;;7.63;4.07;;;17.40;99.90;;;;;;4985981;28;20026;-73
2022/10/10 12:36:38;;;;;;;6.10;4.03;;;17.40;99.90;;;;;;4992000;28;20038;-73
2022/10/10 12:39:08;;;;;;;7.57;3.45;;;17.60;99.90;;;;;;4991119;28;20026;-73
2022/10/10 12:41:53;;;;;;;8.43;4.30;;;18.10;99.90;;;;;;4991178;28;20026;-73
2022/10/10 12:44:42;;;;;;;7.90;4.55;;;18.20;99.90;;;;;;4992304;28;20033;-73
2022/10/10 12:47:14;;;;;;;6.85;4.20;;;18.40;99.90;;;;;;4991993;28;20041;-73
2022/10/10 12:49:54;;;;;;;8.98;4.40;;;18.10;99.90;;;;;;4991160;28;20035;-73
2022/10/10 12:52:26;;;;;;;9.15;4.43;;;18.30;99.90;;;;;;4992312;28;20022;-73
2022/10/10 12:55:00;;;;;;;8.02;4.80;;;18.50;99.90;;;;;;4992312;28;20105;-73
2022/10/10 12:57:43;;;;;;;7.40;4.47;;;19.30;99.90;;;;;;4979213;28;20477;-73
2022/10/10 13:00:26;;;;;;;8.90;4.35;;;19.60;99.90;;;;;;4972742;28;20796;-73
2022/10/10 13:03:02;;;;;;;5.13;3.97;;;20.40;99.90;;;;;;4972896;28;20054;-73
2022/10/10 13:05:32;;;;;;;8.63;4.10;;;19.90;99.90;;;;;;4971597;28;20023;-73
2022/10/10 13:08:04;;;;;;;6.78;4.00;;;19.40;99.90;;;;;;4968050;28;20069;-73